Marianne — VRFM5 — position and weather

sailwx.info

Track history (hours):
 
Tides and Currents Weather Stations Pressure Air Temp Water Temp Dewpoint Dewpoint Depression Visibility Wind Speed Wind Dir Waves Ship Positions

Marianne

Last reported at 2016-Jun-27 06:22 UTC. Time now 2016-Jun-28 17:07 UTC.
Position N 49°45' W 003°33'.

Length 97 m; draft 5.5 m.

Type: Ship (hazmat cat B). MMSI: 477560836.

Date/timePositionNaut miles runAvg speedWind from/ knotsBaromVisibWave heightAir tempDewpointWater temp
2016-Jun-27 06:22N 49°45' W 003°33'1214.3
2016-Jun-27 05:34N 49°51' W 003°18'1414.3
2016-Jun-27 04:34N 49°58' W 002°58'1413.6
2016-Jun-27 03:33N 50°03' W 002°38'2711.6
2016-Jun-27 01:12N 50°14' W 001°60'710.2
2016-Jun-27 00:30N 50°17' W 001°50'3310.6
2016-Jun-26 21:22N 50°33' W 001°04'910.8
2016-Jun-26 20:33N 50°41' W 001°01'1111.2
2016-Jun-26 19:33N 50°46' W 001°17'4 4.1
2016-Jun-26 18:33N 50°50' W 001°20'0 0.0
2016-Jun-26 12:33N 50°50' W 001°20'0 0.0
2016-Jun-26 11:27N 50°50' W 001°20'0 0.0
2016-Jun-26 10:21N 50°50' W 001°20'0 0.0
2016-Jun-26 09:30N 50°50' W 001°20'0 0.0
2016-Jun-26 07:27N 50°50' W 001°20'0 0.0
2016-Jun-26 06:27N 50°50' W 001°20'0 0.0
2016-Jun-26 05:27N 50°50' W 001°20'0 0.0
2016-Jun-26 04:09N 50°50' W 001°20'0 0.0
2016-Jun-26 01:21N 50°50' W 001°20'0 0.0
2016-Jun-26 00:15N 50°50' W 001°20'0 0.0
2016-Jun-25 23:33N 50°50' W 001°20'0 0.0
2016-Jun-25 22:33N 50°50' W 001°20'0 0.0
2016-Jun-25 20:33N 50°50' W 001°20'0 0.0
2016-Jun-25 19:15N 50°50' W 001°20'0 0.0
2016-Jun-25 17:21N 50°50' W 001°20'0 0.0
2016-Jun-25 16:15N 50°50' W 001°20'0 0.0
2016-Jun-25 14:21N 50°50' W 001°20'0 0.0
2016-Jun-25 13:33N 50°50' W 001°20'0 0.0
2016-Jun-25 12:33N 50°50' W 001°20'0 0.0
2016-Jun-25 11:21N 50°50' W 001°20'0 0.0
2016-Jun-25 10:27N 50°50' W 001°20'0 0.0
2016-Jun-25 09:33N 50°50' W 001°20'0 0.0
2016-Jun-25 08:09N 50°50' W 001°20'0 0.0
2016-Jun-25 07:33N 50°50' W 001°20'0 0.0
2016-Jun-25 06:33N 50°50' W 001°20'0 0.0
2016-Jun-25 05:27N 50°50' W 001°20'0 0.0
2016-Jun-25 03:33N 50°50' W 001°20'0 0.0
2016-Jun-25 02:33N 50°50' W 001°20'0 0.0
2016-Jun-25 01:33N 50°50' W 001°20'0 0.0
2016-Jun-25 00:21N 50°50' W 001°20'0 0.0
2016-Jun-24 23:21N 50°50' W 001°20'0 0.0
2016-Jun-24 22:33N 50°50' W 001°20'0 0.0
2016-Jun-24 21:33N 50°50' W 001°20'0 0.0
2016-Jun-24 20:21N 50°50' W 001°20'0 0.0
2016-Jun-24 19:33N 50°50' W 001°20'0 0.0
2016-Jun-24 18:33N 50°50' W 001°20'0 0.0
2016-Jun-24 17:27N 50°50' W 001°20'0 0.0
2016-Jun-24 11:27N 50°50' W 001°20'0 0.0
2016-Jun-24 10:33N 50°50' W 001°20'0 0.0
2016-Jun-24 09:33N 50°50' W 001°20'3 3.1
2016-Jun-24 08:34N 50°47' W 001°19'1110.7
2016-Jun-24 07:34N 50°44' W 001°03'1 0.4
2016-Jun-24 04:31N 50°42' W 001°02'0 0.0
2016-Jun-24 03:31N 50°42' W 001°03'0 0.0
2016-Jun-24 02:31N 50°43' W 001°03'0 0.1
2016-Jun-24 01:31N 50°42' W 001°02'0 0.0
2016-Jun-24 00:31N 50°42' W 001°02'0 0.0
2016-Jun-23 23:31N 50°42' W 001°02'0 0.0
2016-Jun-23 22:31N 50°42' W 001°02'0 0.0
2016-Jun-23 21:31N 50°42' W 001°02'0 0.0
2016-Jun-23 20:28N 50°42' W 001°02'0 0.0
2016-Jun-23 19:31N 50°42' W 001°02'0 0.0
2016-Jun-23 18:31N 50°42' W 001°02'0 0.1
2016-Jun-23 17:31N 50°42' W 001°02'0 0.0
2016-Jun-23 16:31N 50°42' W 001°02'0 0.1
2016-Jun-23 15:33N 50°42' W 001°03'0 0.0
2016-Jun-23 14:33N 50°43' W 001°03'0 0.0
2016-Jun-23 13:33N 50°43' W 001°03'0 0.0
2016-Jun-23 12:33N 50°43' W 001°03'0 0.0
2016-Jun-23 11:33N 50°43' W 001°03'0 0.0
2016-Jun-23 10:33N 50°43' W 001°03'0 0.1
2016-Jun-23 09:33N 50°42' W 001°02'0 0.1
2016-Jun-23 08:33N 50°43' W 001°02'0 0.0
2016-Jun-23 07:33N 50°43' W 001°02'0 0.0
2016-Jun-23 05:33N 50°42' W 001°02'0 0.0
2016-Jun-23 04:33N 50°42' W 001°02'0 0.0
2016-Jun-23 03:33N 50°42' W 001°03'0 0.1
2016-Jun-23 02:33N 50°42' W 001°03'0 0.0
2016-Jun-23 01:33N 50°42' W 001°03'0 0.0
2016-Jun-23 00:33N 50°43' W 001°03'0 0.0
2016-Jun-22 23:33N 50°43' W 001°03'0 0.0
2016-Jun-22 22:33N 50°43' W 001°03'0 0.1
2016-Jun-22 21:33N 50°42' W 001°02'0 0.1
2016-Jun-22 20:33N 50°43' W 001°02'0 0.0
2016-Jun-22 19:33N 50°43' W 001°02'0 0.0
2016-Jun-22 18:33N 50°42' W 001°02'0 0.1
2016-Jun-22 17:33N 50°42' W 001°02'0 0.0
2016-Jun-22 16:33N 50°42' W 001°02'0 0.0
2016-Jun-22 15:33N 50°42' W 001°02'0 0.0
2016-Jun-22 14:33N 50°42' W 001°03'0 0.0
2016-Jun-22 13:33N 50°43' W 001°03'0 0.0
2016-Jun-22 12:33N 50°43' W 001°03'0 0.0
2016-Jun-22 11:33N 50°43' W 001°02'0 0.0
2016-Jun-22 10:33N 50°43' W 001°02'0 0.0
2016-Jun-22 09:30N 50°43' W 001°02'0 0.0
2016-Jun-22 08:33N 50°43' W 001°02'0 0.0
2016-Jun-22 07:33N 50°43' W 001°02'0 0.0
2016-Jun-22 06:33N 50°43' W 001°02'0 0.1
2016-Jun-22 05:33N 50°42' W 001°02'0 0.0
2016-Jun-22 04:33N 50°42' W 001°02'0 0.0
2016-Jun-22 03:33N 50°42' W 001°02'0 0.1
2016-Jun-22 02:33N 50°42' W 001°03'0 0.0
2016-Jun-22 01:33N 50°42' W 001°03'0 0.0
2016-Jun-22 00:33N 50°43' W 001°03'0 0.0
2016-Jun-21 23:33N 50°43' W 001°03'2 1.6
2016-Jun-21 22:34N 50°41' W 001°01'1412.7
2016-Jun-21 21:29N 50°28' W 001°06'3014.8
2016-Jun-21 19:28N 50°05' W 001°36'1516.2
2016-Jun-21 18:32N 50°01' W 001°59'2814.1
2016-Jun-21 16:32N 49°51' W 002°40'1412.9
2016-Jun-21 15:25N 49°46' W 003°01'1112.6
2016-Jun-21 14:33N 49°40' W 003°15'1312.6
2016-Jun-21 13:33N 49°33' W 003°32'2812.4
2016-Jun-21 11:16N 49°19' W 004°10'1012.4
2016-Jun-21 10:28N 49°15' W 004°23'1312.5
2016-Jun-21 09:28N 49°08' W 004°39'2513.0
2016-Jun-21 07:33N 48°55' W 005°12'1413.8
2016-Jun-21 06:33N 48°48' W 005°30'47112.3
2016-Jun-19 16:13N 41°19' W 008°53'  
Track history (hours):
 
Tides and Currents Weather Stations Pressure Air Temp Water Temp Dewpoint Dewpoint Depression Visibility Wind Speed Wind Dir Waves Ship Positions

Marianne

Last reported at 2016-Jun-27 06:22 UTC. Time now 2016-Jun-28 17:07 UTC.
Position N 49°45' W 003°33'.

Length 97 m; draft 5.5 m.

Type: Ship (hazmat cat B). MMSI: 477560836.

Date/timePositionNaut miles runAvg speedWind from/ knotsBaromVisibWave heightAir tempDewpointWater temp
2016-Jun-27 06:22N 49°45' W 003°33'1214.3
2016-Jun-27 05:34N 49°51' W 003°18'1414.3
2016-Jun-27 04:34N 49°58' W 002°58'1413.6
2016-Jun-27 03:33N 50°03' W 002°38'2711.6
2016-Jun-27 01:12N 50°14' W 001°60'710.2
2016-Jun-27 00:30N 50°17' W 001°50'3310.6
2016-Jun-26 21:22N 50°33' W 001°04'910.8
2016-Jun-26 20:33N 50°41' W 001°01'1111.2
2016-Jun-26 19:33N 50°46' W 001°17'4 4.1
2016-Jun-26 18:33N 50°50' W 001°20'0 0.0
2016-Jun-26 12:33N 50°50' W 001°20'0 0.0
2016-Jun-26 11:27N 50°50' W 001°20'0 0.0
2016-Jun-26 10:21N 50°50' W 001°20'0 0.0
2016-Jun-26 09:30N 50°50' W 001°20'0 0.0
2016-Jun-26 07:27N 50°50' W 001°20'0 0.0
2016-Jun-26 06:27N 50°50' W 001°20'0 0.0
2016-Jun-26 05:27N 50°50' W 001°20'0 0.0
2016-Jun-26 04:09N 50°50' W 001°20'0 0.0
2016-Jun-26 01:21N 50°50' W 001°20'0 0.0
2016-Jun-26 00:15N 50°50' W 001°20'0 0.0
2016-Jun-25 23:33N 50°50' W 001°20'0 0.0
2016-Jun-25 22:33N 50°50' W 001°20'0 0.0
2016-Jun-25 20:33N 50°50' W 001°20'0 0.0
2016-Jun-25 19:15N 50°50' W 001°20'0 0.0
2016-Jun-25 17:21N 50°50' W 001°20'0 0.0
2016-Jun-25 16:15N 50°50' W 001°20'0 0.0
2016-Jun-25 14:21N 50°50' W 001°20'0 0.0
2016-Jun-25 13:33N 50°50' W 001°20'0 0.0
2016-Jun-25 12:33N 50°50' W 001°20'0 0.0
2016-Jun-25 11:21N 50°50' W 001°20'0 0.0
2016-Jun-25 10:27N 50°50' W 001°20'0 0.0
2016-Jun-25 09:33N 50°50' W 001°20'0 0.0
2016-Jun-25 08:09N 50°50' W 001°20'0 0.0
2016-Jun-25 07:33N 50°50' W 001°20'0 0.0
2016-Jun-25 06:33N 50°50' W 001°20'0 0.0
2016-Jun-25 05:27N 50°50' W 001°20'0 0.0
2016-Jun-25 03:33N 50°50' W 001°20'0 0.0
2016-Jun-25 02:33N 50°50' W 001°20'0 0.0
2016-Jun-25 01:33N 50°50' W 001°20'0 0.0
2016-Jun-25 00:21N 50°50' W 001°20'0 0.0
2016-Jun-24 23:21N 50°50' W 001°20'0 0.0
2016-Jun-24 22:33N 50°50' W 001°20'0 0.0
2016-Jun-24 21:33N 50°50' W 001°20'0 0.0
2016-Jun-24 20:21N 50°50' W 001°20'0 0.0
2016-Jun-24 19:33N 50°50' W 001°20'0 0.0
2016-Jun-24 18:33N 50°50' W 001°20'0 0.0
2016-Jun-24 17:27N 50°50' W 001°20'0 0.0
2016-Jun-24 11:27N 50°50' W 001°20'0 0.0
2016-Jun-24 10:33N 50°50' W 001°20'0 0.0
2016-Jun-24 09:33N 50°50' W 001°20'3 3.1
2016-Jun-24 08:34N 50°47' W 001°19'1110.7
2016-Jun-24 07:34N 50°44' W 001°03'1 0.4
2016-Jun-24 04:31N 50°42' W 001°02'0 0.0
2016-Jun-24 03:31N 50°42' W 001°03'0 0.0
2016-Jun-24 02:31N 50°43' W 001°03'0 0.1
2016-Jun-24 01:31N 50°42' W 001°02'0 0.0
2016-Jun-24 00:31N 50°42' W 001°02'0 0.0
2016-Jun-23 23:31N 50°42' W 001°02'0 0.0
2016-Jun-23 22:31N 50°42' W 001°02'0 0.0
2016-Jun-23 21:31N 50°42' W 001°02'0 0.0
2016-Jun-23 20:28N 50°42' W 001°02'0 0.0
2016-Jun-23 19:31N 50°42' W 001°02'0 0.0
2016-Jun-23 18:31N 50°42' W 001°02'0 0.1
2016-Jun-23 17:31N 50°42' W 001°02'0 0.0
2016-Jun-23 16:31N 50°42' W 001°02'0 0.1
2016-Jun-23 15:33N 50°42' W 001°03'0 0.0
2016-Jun-23 14:33N 50°43' W 001°03'0 0.0
2016-Jun-23 13:33N 50°43' W 001°03'0 0.0
2016-Jun-23 12:33N 50°43' W 001°03'0 0.0
2016-Jun-23 11:33N 50°43' W 001°03'0 0.0
2016-Jun-23 10:33N 50°43' W 001°03'0 0.1
2016-Jun-23 09:33N 50°42' W 001°02'0 0.1
2016-Jun-23 08:33N 50°43' W 001°02'0 0.0
2016-Jun-23 07:33N 50°43' W 001°02'0 0.0
2016-Jun-23 05:33N 50°42' W 001°02'0 0.0
2016-Jun-23 04:33N 50°42' W 001°02'0 0.0
2016-Jun-23 03:33N 50°42' W 001°03'0 0.1
2016-Jun-23 02:33N 50°42' W 001°03'0 0.0
2016-Jun-23 01:33N 50°42' W 001°03'0 0.0
2016-Jun-23 00:33N 50°43' W 001°03'0 0.0
2016-Jun-22 23:33N 50°43' W 001°03'0 0.0
2016-Jun-22 22:33N 50°43' W 001°03'0 0.1
2016-Jun-22 21:33N 50°42' W 001°02'0 0.1
2016-Jun-22 20:33N 50°43' W 001°02'0 0.0
2016-Jun-22 19:33N 50°43' W 001°02'0 0.0
2016-Jun-22 18:33N 50°42' W 001°02'0 0.1
2016-Jun-22 17:33N 50°42' W 001°02'0 0.0
2016-Jun-22 16:33N 50°42' W 001°02'0 0.0
2016-Jun-22 15:33N 50°42' W 001°02'0 0.0
2016-Jun-22 14:33N 50°42' W 001°03'0 0.0
2016-Jun-22 13:33N 50°43' W 001°03'0 0.0
2016-Jun-22 12:33N 50°43' W 001°03'0 0.0
2016-Jun-22 11:33N 50°43' W 001°02'0 0.0
2016-Jun-22 10:33N 50°43' W 001°02'0 0.0
2016-Jun-22 09:30N 50°43' W 001°02'0 0.0
2016-Jun-22 08:33N 50°43' W 001°02'0 0.0
2016-Jun-22 07:33N 50°43' W 001°02'0 0.0
2016-Jun-22 06:33N 50°43' W 001°02'0 0.1
2016-Jun-22 05:33N 50°42' W 001°02'0 0.0
2016-Jun-22 04:33N 50°42' W 001°02'0 0.0
2016-Jun-22 03:33N 50°42' W 001°02'0 0.1
2016-Jun-22 02:33N 50°42' W 001°03'0 0.0
2016-Jun-22 01:33N 50°42' W 001°03'0 0.0
2016-Jun-22 00:33N 50°43' W 001°03'0 0.0
2016-Jun-21 23:33N 50°43' W 001°03'2 1.6
2016-Jun-21 22:34N 50°41' W 001°01'1412.7
2016-Jun-21 21:29N 50°28' W 001°06'3014.8
2016-Jun-21 19:28N 50°05' W 001°36'1516.2
2016-Jun-21 18:32N 50°01' W 001°59'2814.1
2016-Jun-21 16:32N 49°51' W 002°40'1412.9
2016-Jun-21 15:25N 49°46' W 003°01'1112.6
2016-Jun-21 14:33N 49°40' W 003°15'1312.6
2016-Jun-21 13:33N 49°33' W 003°32'2812.4
2016-Jun-21 11:16N 49°19' W 004°10'1012.4
2016-Jun-21 10:28N 49°15' W 004°23'1312.5
2016-Jun-21 09:28N 49°08' W 004°39'2513.0
2016-Jun-21 07:33N 48°55' W 005°12'1413.8
2016-Jun-21 06:33N 48°48' W 005°30'47112.3
2016-Jun-19 16:13N 41°19' W 008°53'  

Dump ship's entire track history